createdAt,value
2018-03-26T00:01:12.503Z,16.37
2018-03-26T00:03:40.800Z,15.63
2018-03-26T00:06:09.083Z,14.13
2018-03-26T00:08:37.368Z,19.77
2018-03-26T00:11:05.667Z,21.90
2018-03-26T00:13:33.949Z,17.07
2018-03-26T00:16:02.244Z,18.27
2018-03-26T00:18:30.528Z,15.53
2018-03-26T00:20:58.812Z,17.77
2018-03-26T00:23:27.094Z,15.67
2018-03-26T00:25:55.388Z,19.73
2018-03-26T00:28:23.671Z,17.20
2018-03-26T00:30:51.951Z,15.03
2018-03-26T00:33:20.248Z,19.20
2018-03-26T00:35:48.520Z,16.30
2018-03-26T00:38:16.800Z,21.67
2018-03-26T00:40:45.116Z,18.97
2018-03-26T00:43:13.448Z,23.73
2018-03-26T00:45:41.681Z,17.10
2018-03-26T00:48:09.983Z,19.93
2018-03-26T00:50:38.263Z,20.70
2018-03-26T00:53:06.555Z,16.90
2018-03-26T00:55:34.840Z,14.53
2018-03-26T00:58:03.116Z,18.77
2018-03-26T01:00:31.408Z,15.50
2018-03-26T01:02:59.700Z,15.30
2018-03-26T01:05:27.981Z,14.30
2018-03-26T01:07:56.261Z,19.23
2018-03-26T01:10:24.572Z,14.93
2018-03-26T01:12:52.868Z,17.93
2018-03-26T01:15:21.153Z,17.67
2018-03-26T01:17:49.448Z,17.40
2018-03-26T01:20:17.732Z,14.03
2018-03-26T01:22:46.016Z,16.33
2018-03-26T01:25:14.309Z,19.90
2018-03-26T01:27:42.592Z,21.07
2018-03-26T01:30:10.872Z,16.33
2018-03-26T01:32:39.171Z,15.30
2018-03-26T01:35:07.451Z,21.57
2018-03-26T01:37:35.743Z,20.50
2018-03-26T01:40:04.040Z,15.70
2018-03-26T01:42:32.318Z,18.43
2018-03-26T01:45:00.628Z,18.70
2018-03-26T01:47:28.919Z,18.90
2018-03-26T01:49:57.196Z,17.63
2018-03-26T01:52:25.479Z,22.83
2018-03-26T01:54:53.779Z,20.40
2018-03-26T01:57:22.067Z,18.23
2018-03-26T01:59:50.344Z,22.77
2018-03-26T02:02:18.640Z,19.10
2018-03-26T02:04:46.947Z,15.30
2018-03-26T02:07:15.199Z,20.53
2018-03-26T02:09:43.504Z,19.97
2018-03-26T02:12:11.780Z,16.77
2018-03-26T02:14:40.055Z,20.23
2018-03-26T02:17:08.347Z,19.80
2018-03-26T02:19:36.627Z,20.53
2018-03-26T02:22:04.928Z,21.57
2018-03-26T02:24:33.208Z,19.77
2018-03-26T02:27:01.491Z,18.37
2018-03-26T02:29:29.780Z,17.50
2018-03-26T02:31:58.073Z,20.30
2018-03-26T02:34:26.371Z,22.00
2018-03-26T02:36:54.651Z,21.30
2018-03-26T02:39:22.932Z,17.33
2018-03-26T02:41:51.228Z,20.40
2018-03-26T02:44:19.520Z,25.53
2018-03-26T02:46:47.818Z,19.17
2018-03-26T02:49:16.098Z,20.33
2018-03-26T02:51:44.373Z,22.60
2018-03-26T02:54:12.672Z,23.77
2018-03-26T02:56:40.962Z,20.30
2018-03-26T02:59:09.239Z,20.03
2018-03-26T03:01:37.792Z,22.90
2018-03-26T03:04:06.072Z,23.33
2018-03-26T03:06:34.364Z,17.80
2018-03-26T03:09:02.647Z,18.20
2018-03-26T03:11:30.957Z,23.43
2018-03-26T03:13:59.239Z,24.20
2018-03-26T03:16:27.523Z,20.53
2018-03-26T03:18:55.826Z,18.30
2018-03-26T03:21:24.118Z,19.63
2018-03-26T03:23:52.407Z,19.73
2018-03-26T03:26:20.692Z,20.07
2018-03-26T03:28:48.975Z,23.90
2018-03-26T03:31:17.264Z,24.37
2018-03-26T03:33:45.543Z,24.60
2018-03-26T03:36:13.845Z,24.17
2018-03-26T03:38:42.128Z,23.70
2018-03-26T03:41:10.410Z,30.87
2018-03-26T03:43:38.700Z,18.70
2018-03-26T03:46:06.983Z,21.40
2018-03-26T03:48:35.284Z,23.60
2018-03-26T03:51:03.563Z,30.43
2018-03-26T03:53:31.848Z,19.97
2018-03-26T03:56:00.144Z,20.33
2018-03-26T03:58:28.431Z,25.77
2018-03-26T04:00:56.728Z,23.80
2018-03-26T04:03:25.010Z,28.43
2018-03-26T04:05:53.284Z,20.80
2018-03-26T04:08:21.571Z,21.50
2018-03-26T04:10:49.852Z,24.23
2018-03-26T04:13:18.151Z,27.60
2018-03-26T04:15:46.432Z,27.33
2018-03-26T04:18:14.700Z,29.73
2018-03-26T04:20:43.003Z,23.80
2018-03-26T04:23:11.291Z,26.93
2018-03-26T04:25:39.591Z,21.70
2018-03-26T04:28:07.871Z,25.03
2018-03-26T04:30:36.147Z,34.73
2018-03-26T04:33:04.442Z,25.47
2018-03-26T04:35:32.719Z,29.70
2018-03-26T04:38:01.019Z,29.93
2018-03-26T04:40:29.295Z,26.23
2018-03-26T04:42:57.580Z,37.20
2018-03-26T04:45:25.871Z,32.90
2018-03-26T04:47:54.144Z,26.40
2018-03-26T04:50:22.439Z,25.30
2018-03-26T04:52:50.720Z,26.07
2018-03-26T04:55:19.012Z,37.83
2018-03-26T04:57:47.303Z,39.77
2018-03-26T05:00:15.576Z,39.57
2018-03-26T05:02:43.875Z,30.77
2018-03-26T05:05:12.155Z,33.43
2018-03-26T05:07:40.432Z,23.53
2018-03-26T05:10:08.720Z,26.67
2018-03-26T05:12:36.995Z,40.00
2018-03-26T05:15:05.528Z,26.07
2018-03-26T05:17:33.803Z,30.23
2018-03-26T05:20:02.083Z,28.30
2018-03-26T05:22:30.370Z,29.33
2018-03-26T05:24:58.648Z,30.77
2018-03-26T05:27:26.936Z,40.20
2018-03-26T05:29:55.228Z,39.80
2018-03-26T05:32:23.495Z,32.97
2018-03-26T05:34:51.784Z,34.47
2018-03-26T05:37:20.055Z,33.03
2018-03-26T05:39:48.377Z,42.57
2018-03-26T05:42:16.652Z,37.93
2018-03-26T05:44:44.927Z,35.57
2018-03-26T05:47:13.216Z,44.17
2018-03-26T05:49:41.488Z,34.27
2018-03-26T05:52:09.815Z,38.80
2018-03-26T05:54:38.102Z,38.13
2018-03-26T05:57:06.379Z,39.80
2018-03-26T05:59:34.670Z,32.87
2018-03-26T06:02:02.942Z,34.87
2018-03-26T06:04:31.231Z,27.53
2018-03-26T06:06:59.555Z,31.87
2018-03-26T06:09:27.783Z,33.93
2018-03-26T06:11:56.095Z,34.63
2018-03-26T06:14:24.354Z,27.60
2018-03-26T06:17:04.556Z,29.03
2018-03-26T06:19:32.832Z,32.23
2018-03-26T06:22:01.112Z,30.10
2018-03-26T06:24:29.391Z,32.67
2018-03-26T06:26:57.672Z,33.40
2018-03-26T06:29:25.983Z,30.67
2018-03-26T06:31:54.247Z,26.20
2018-03-26T06:34:22.523Z,29.53
2018-03-26T06:36:51.675Z,30.43
2018-03-26T06:39:24.335Z,30.60
2018-03-26T06:41:52.623Z,30.57
2018-03-26T06:44:20.896Z,30.07
2018-03-26T06:46:49.507Z,21.23
2018-03-26T06:49:17.785Z,29.70
2018-03-26T06:51:46.064Z,28.83
2018-03-26T06:54:14.360Z,28.33
2018-03-26T06:56:42.660Z,35.10
2018-03-26T06:59:10.958Z,25.17
2018-03-26T07:01:39.217Z,28.33
2018-03-26T07:04:07.496Z,30.53
2018-03-26T07:06:35.776Z,26.90
2018-03-26T07:09:04.054Z,24.60
2018-03-26T07:11:32.352Z,27.03
2018-03-26T07:14:00.645Z,29.27
2018-03-26T07:16:28.901Z,34.13
2018-03-26T07:18:57.233Z,28.50
2018-03-26T07:21:25.461Z,27.33
2018-03-26T07:23:53.765Z,28.03
2018-03-26T07:26:22.040Z,27.67
2018-03-26T07:28:50.317Z,26.87
2018-03-26T07:31:18.642Z,26.97
2018-03-26T07:33:46.888Z,27.07
2018-03-26T07:36:15.184Z,29.13
2018-03-26T07:38:43.464Z,27.20
2018-03-26T07:41:11.777Z,27.30
2018-03-26T07:43:40.049Z,31.73
2018-03-26T07:46:08.408Z,27.67
2018-03-26T07:48:36.707Z,30.97
2018-03-26T07:51:04.999Z,27.03
2018-03-26T07:53:33.280Z,29.33
2018-03-26T07:56:01.572Z,29.50
2018-03-26T07:58:29.862Z,29.60
2018-03-26T08:00:58.164Z,32.23
2018-03-26T08:03:26.452Z,30.33
2018-03-26T08:05:54.744Z,29.47
2018-03-26T08:08:23.032Z,31.27
2018-03-26T08:10:51.310Z,30.10
2018-03-26T08:13:19.615Z,31.33
2018-03-26T08:15:47.899Z,32.60
2018-03-26T08:18:16.185Z,33.43
2018-03-26T08:20:44.474Z,34.20
2018-03-26T08:23:12.763Z,30.10
2018-03-26T08:25:41.074Z,29.97
2018-03-26T08:28:09.352Z,30.50
2018-03-26T08:30:37.631Z,30.43
2018-03-26T08:33:05.932Z,32.93
2018-03-26T08:35:34.216Z,33.27
2018-03-26T08:38:02.512Z,31.03
2018-03-26T08:40:30.831Z,33.57
2018-03-26T08:42:59.139Z,32.23
2018-03-26T08:45:27.469Z,20.17
2018-03-26T08:47:55.751Z,26.73
2018-03-26T08:50:24.092Z,28.53
2018-03-26T08:52:52.325Z,32.37
2018-03-26T08:55:20.607Z,24.60
2018-03-26T08:57:48.908Z,37.03
2018-03-26T09:00:17.192Z,38.73
2018-03-26T09:02:45.504Z,33.67
2018-03-26T09:05:13.791Z,32.83
2018-03-26T09:07:42.075Z,36.50
2018-03-26T09:10:10.363Z,35.73
2018-03-26T09:12:38.643Z,43.17
2018-03-26T09:15:06.943Z,39.10
2018-03-26T09:17:35.376Z,37.63
2018-03-26T09:20:03.608Z,39.40
2018-03-26T09:22:31.908Z,39.80
2018-03-26T09:25:00.199Z,31.40
2018-03-26T09:27:28.476Z,38.23
2018-03-26T09:29:56.765Z,41.00
2018-03-26T09:32:25.073Z,36.57
2018-03-26T09:34:53.379Z,39.50
2018-03-26T09:37:21.672Z,31.67
2018-03-26T09:39:49.956Z,31.60
2018-03-26T09:42:18.248Z,40.23
2018-03-26T09:44:46.568Z,35.57
2018-03-26T09:47:14.851Z,35.93
2018-03-26T09:49:43.151Z,35.83
2018-03-26T09:52:11.439Z,36.00
2018-03-26T09:54:39.731Z,38.13
2018-03-26T09:57:08.083Z,38.30
2018-03-26T09:59:36.436Z,32.87
2018-03-26T10:02:04.734Z,31.00
2018-03-26T10:04:33.034Z,28.53
2018-03-26T10:07:01.319Z,30.00
2018-03-26T10:09:29.618Z,30.40
2018-03-26T10:11:57.947Z,28.60
2018-03-26T10:14:26.376Z,25.03
2018-03-26T10:16:54.989Z,23.97
2018-03-26T10:19:23.292Z,26.13
2018-03-26T10:21:51.576Z,23.27
2018-03-26T10:24:19.872Z,21.33
2018-03-26T10:26:48.151Z,20.03
2018-03-26T10:29:17.267Z,17.30
2018-03-26T10:31:45.582Z,14.93
2018-03-26T10:34:13.861Z,13.13
2018-03-26T10:36:42.242Z,13.97
2018-03-26T10:39:10.530Z,11.63
2018-03-26T10:41:39.496Z,10.20
2018-03-26T10:44:07.800Z,9.37
2018-03-26T10:46:36.072Z,9.13
2018-03-26T10:49:04.368Z,10.17
2018-03-26T10:51:32.666Z,8.37
2018-03-26T10:54:00.940Z,8.57
2018-03-26T10:56:29.239Z,8.37
2018-03-26T10:58:57.507Z,5.67
2018-03-26T11:01:25.796Z,6.73
2018-03-26T11:03:54.113Z,8.00
2018-03-26T11:06:22.395Z,9.70
2018-03-26T11:08:50.694Z,9.30
2018-03-26T11:11:18.975Z,5.87
2018-03-26T11:13:47.252Z,6.40
2018-03-26T11:16:15.544Z,7.93
2018-03-26T11:18:43.834Z,8.80
2018-03-26T11:21:12.463Z,10.27
2018-03-26T11:23:40.740Z,11.10
2018-03-26T11:26:09.023Z,10.83
2018-03-26T11:28:37.315Z,10.57
2018-03-26T11:31:05.596Z,10.63
2018-03-26T11:33:33.906Z,12.33
2018-03-26T11:36:02.204Z,9.33
2018-03-26T11:38:30.482Z,11.83
2018-03-26T11:40:58.775Z,11.23
2018-03-26T11:43:27.067Z,15.40
2018-03-26T11:45:55.366Z,10.77
2018-03-26T11:51:20.795Z,7.30
2018-03-26T11:53:49.087Z,6.80
2018-03-26T11:56:17.371Z,7.00
2018-03-26T11:58:45.659Z,7.30
2018-03-26T12:01:13.944Z,7.70
2018-03-26T12:03:42.239Z,6.67
2018-03-26T12:06:10.521Z,6.73
2018-03-26T12:08:38.815Z,6.33
2018-03-26T12:11:07.085Z,5.97
2018-03-26T12:13:35.376Z,5.20
2018-03-26T12:16:03.643Z,5.53
2018-03-26T12:18:31.943Z,10.27
2018-03-26T12:21:02.197Z,5.87
2018-03-26T12:23:42.296Z,4.63
2018-03-26T12:26:10.576Z,4.50
2018-03-26T12:28:50.643Z,3.10
2018-03-26T12:31:18.934Z,17.33
2018-03-26T12:33:58.980Z,5.13
2018-03-26T12:36:27.248Z,3.50
2018-03-26T12:38:55.577Z,3.60
2018-03-26T12:41:23.831Z,3.43
2018-03-26T12:43:52.119Z,4.10
2018-03-26T12:46:32.256Z,3.40
2018-03-26T12:49:00.551Z,3.83
2018-03-26T12:51:40.742Z,5.07
2018-03-26T12:54:09.015Z,4.70
2018-03-26T12:56:38.231Z,4.47
2018-03-26T12:59:06.507Z,6.13
2018-03-26T13:01:46.699Z,6.13
2018-03-26T13:04:14.992Z,8.10
2018-03-26T13:06:43.263Z,7.53
2018-03-26T13:09:11.861Z,6.13
2018-03-26T13:11:40.127Z,8.00
2018-03-26T13:14:08.408Z,9.23
2018-03-26T13:16:36.743Z,9.63
2018-03-26T13:19:05.039Z,11.07
2018-03-26T13:21:33.331Z,9.40
2018-03-26T13:24:01.612Z,11.20
2018-03-26T13:26:29.904Z,11.83
2018-03-26T13:28:58.183Z,10.60
2018-03-26T13:31:26.499Z,10.03
2018-03-26T13:33:54.776Z,9.67
2018-03-26T13:36:23.048Z,7.37
2018-03-26T13:38:51.329Z,7.00
2018-03-26T13:41:19.599Z,7.37
2018-03-26T13:43:47.884Z,7.20
2018-03-26T13:46:16.156Z,5.53
2018-03-26T13:48:44.456Z,6.50
2018-03-26T13:51:12.731Z,6.50
2018-03-26T13:53:41.026Z,6.20
2018-03-26T13:56:09.297Z,5.10
2018-03-26T13:58:37.632Z,5.87
2018-03-26T14:01:05.865Z,5.30
2018-03-26T14:03:34.235Z,5.27
2018-03-26T14:06:02.531Z,5.50
2018-03-26T14:12:01.213Z,6.87
2018-03-26T14:14:41.416Z,6.00
2018-03-26T14:17:21.463Z,5.20
2018-03-26T14:19:49.751Z,4.30
2018-03-26T14:22:18.027Z,4.47
2018-03-26T14:24:46.292Z,4.13
2018-03-26T14:27:14.571Z,4.63
2018-03-26T14:29:42.843Z,4.60
2018-03-26T14:32:11.128Z,4.40
2018-03-26T14:34:39.403Z,4.50
2018-03-26T14:37:07.684Z,4.80
2018-03-26T14:39:35.960Z,4.57
2018-03-26T14:42:04.235Z,4.57
2018-03-26T14:44:32.519Z,4.43
2018-03-26T14:47:00.788Z,3.73
2018-03-26T14:49:29.071Z,2.70
2018-03-26T14:51:57.347Z,2.57
2018-03-26T14:54:25.609Z,2.83
2018-03-26T14:56:53.888Z,2.93
2018-03-26T14:59:22.164Z,2.97
2018-03-26T15:01:50.447Z,3.40
2018-03-26T15:04:18.740Z,3.63
2018-03-26T15:06:47.024Z,3.43
2018-03-26T15:09:15.447Z,3.33
2018-03-26T15:11:43.716Z,2.80
2018-03-26T15:14:11.999Z,2.33
2018-03-26T15:16:46.098Z,2.83
2018-03-26T15:19:14.375Z,2.67
2018-03-26T15:21:42.651Z,3.03
2018-03-26T15:24:10.970Z,2.53
2018-03-26T15:26:39.248Z,2.60
2018-03-26T15:29:07.511Z,2.40
2018-03-26T15:31:35.795Z,2.40
2018-03-26T15:34:04.065Z,2.50
2018-03-26T15:36:32.335Z,3.00
2018-03-26T15:39:00.968Z,2.87
2018-03-26T15:41:29.256Z,3.20
2018-03-26T15:43:57.529Z,3.27
2018-03-26T15:46:25.793Z,2.73
2018-03-26T15:48:54.072Z,3.00
2018-03-26T15:51:22.341Z,2.87
2018-03-26T15:53:50.628Z,2.80
2018-03-26T15:56:18.896Z,2.83
2018-03-26T15:58:47.191Z,2.50
2018-03-26T16:01:15.463Z,2.87
2018-03-26T16:03:43.735Z,2.50
2018-03-26T16:06:12.015Z,3.33
2018-03-26T16:08:40.292Z,2.83
2018-03-26T16:11:08.575Z,3.57
2018-03-26T16:13:36.848Z,3.50
2018-03-26T16:16:05.120Z,3.00
2018-03-26T16:18:33.452Z,2.90
2018-03-26T16:21:01.666Z,3.27
2018-03-26T16:23:29.948Z,3.40
2018-03-26T16:25:58.223Z,4.00
2018-03-26T16:28:26.503Z,3.80
2018-03-26T16:30:54.768Z,4.23
2018-03-26T16:33:23.035Z,4.20
2018-03-26T16:35:51.320Z,4.30
2018-03-26T16:38:19.597Z,4.67
2018-03-26T16:40:47.888Z,5.67
2018-03-26T16:43:16.159Z,5.20
2018-03-26T16:45:44.439Z,4.60
2018-03-26T16:48:12.723Z,4.90
2018-03-26T16:50:41.012Z,4.37
2018-03-26T16:53:09.279Z,4.90
2018-03-26T16:55:37.553Z,5.60
2018-03-26T16:58:05.831Z,5.10
2018-03-26T17:00:34.131Z,5.50
2018-03-26T17:03:02.412Z,5.60
2018-03-26T17:05:30.680Z,4.07
2018-03-26T17:07:58.960Z,4.50
2018-03-26T17:10:27.231Z,3.83
2018-03-26T17:12:55.513Z,4.50
2018-03-26T17:15:23.780Z,5.00
2018-03-26T17:17:52.059Z,4.27
2018-03-26T17:20:20.346Z,4.40
2018-03-26T17:22:48.616Z,4.47
2018-03-26T17:25:16.892Z,3.93
2018-03-26T17:27:45.160Z,4.20
2018-03-26T17:30:13.452Z,4.53
2018-03-26T17:32:41.719Z,4.10
2018-03-26T17:35:10.016Z,3.80
2018-03-26T17:37:38.288Z,3.80
2018-03-26T17:40:06.560Z,3.87
2018-03-26T17:42:34.844Z,4.30
2018-03-26T17:45:03.121Z,4.10
2018-03-26T17:47:31.511Z,4.20
2018-03-26T17:49:59.771Z,3.83
2018-03-26T17:52:28.068Z,4.67
2018-03-26T17:54:56.320Z,4.03
2018-03-26T17:57:24.611Z,3.73
2018-03-26T17:59:52.884Z,3.60
2018-03-26T18:02:21.152Z,3.27
2018-03-26T18:04:49.427Z,3.33
2018-03-26T18:07:17.699Z,4.03
2018-03-26T18:09:45.987Z,3.33
2018-03-26T18:12:14.267Z,3.33
2018-03-26T18:14:42.554Z,3.50
2018-03-26T18:17:10.831Z,4.07
2018-03-26T18:19:39.133Z,3.83
2018-03-26T18:22:07.410Z,4.20
2018-03-26T18:24:35.676Z,3.47
2018-03-26T18:27:03.955Z,3.63
2018-03-26T18:29:32.229Z,3.47
2018-03-26T18:32:00.516Z,3.67
2018-03-26T18:34:28.788Z,4.63
2018-03-26T18:36:57.067Z,2.90
2018-03-26T18:39:25.337Z,3.30
2018-03-26T18:41:53.620Z,3.67
2018-03-26T18:44:21.895Z,4.43
2018-03-26T18:46:50.159Z,3.70
2018-03-26T18:49:18.446Z,3.93
2018-03-26T18:51:46.704Z,3.80
2018-03-26T18:54:14.990Z,5.07
2018-03-26T18:56:43.260Z,4.90
2018-03-26T18:59:11.531Z,5.17
2018-03-26T19:01:39.804Z,3.47
2018-03-26T19:04:08.115Z,3.50
2018-03-26T19:06:36.395Z,3.50
2018-03-26T19:09:04.667Z,3.23
2018-03-26T19:11:32.948Z,4.20
2018-03-26T19:14:01.231Z,3.80
2018-03-26T19:16:29.509Z,4.67
2018-03-26T19:18:57.776Z,3.50
2018-03-26T19:21:26.081Z,4.57
2018-03-26T19:23:54.352Z,4.33
2018-03-26T19:26:22.624Z,3.37
2018-03-26T19:28:50.908Z,3.97
2018-03-26T19:31:19.175Z,4.63
2018-03-26T19:33:47.472Z,5.10
2018-03-26T19:36:15.733Z,5.43
2018-03-26T19:38:44.029Z,5.33
2018-03-26T19:41:12.304Z,7.90
2018-03-26T19:43:40.579Z,5.13
2018-03-26T19:46:08.873Z,5.57
2018-03-26T19:48:37.144Z,6.23
2018-03-26T19:51:05.426Z,4.67
2018-03-26T19:53:33.722Z,6.00
2018-03-26T19:56:02.002Z,5.30
2018-03-26T19:58:30.275Z,5.23
2018-03-26T20:00:58.907Z,5.00
2018-03-26T20:03:27.194Z,5.60
2018-03-26T20:05:55.460Z,6.23
2018-03-26T20:08:23.743Z,5.70
2018-03-26T20:10:52.035Z,5.67
2018-03-26T20:13:20.319Z,5.13
2018-03-26T20:15:48.587Z,4.93
2018-03-26T20:18:16.876Z,5.83
2018-03-26T20:20:45.146Z,4.80
2018-03-26T20:23:13.443Z,6.40
2018-03-26T20:25:41.712Z,6.20
2018-03-26T20:28:10.009Z,6.17
2018-03-26T20:30:38.287Z,5.67
2018-03-26T20:33:06.564Z,6.20
2018-03-26T20:35:34.856Z,6.47
2018-03-26T20:38:03.139Z,5.90
2018-03-26T20:40:31.424Z,5.87
2018-03-26T20:42:59.703Z,5.80
2018-03-26T20:45:27.997Z,5.20
2018-03-26T20:47:56.268Z,6.07
2018-03-26T20:50:24.551Z,5.40
2018-03-26T20:52:52.828Z,5.10
2018-03-26T20:55:21.088Z,4.40
2018-03-26T20:57:49.376Z,5.70
2018-03-26T21:00:17.656Z,5.30
2018-03-26T21:02:45.938Z,5.37
2018-03-26T21:05:14.223Z,6.00
2018-03-26T21:07:42.507Z,5.90
2018-03-26T21:10:10.780Z,5.73
2018-03-26T21:12:39.051Z,5.90
2018-03-26T21:15:07.328Z,5.50
2018-03-26T21:17:35.596Z,5.80
2018-03-26T21:20:03.874Z,5.63
2018-03-26T21:22:32.143Z,5.50
2018-03-26T21:25:00.431Z,5.67
2018-03-26T21:27:28.704Z,4.27
2018-03-26T21:29:56.984Z,4.90
2018-03-26T21:32:25.264Z,5.33
2018-03-26T21:34:53.539Z,5.27
2018-03-26T21:37:21.835Z,6.00
2018-03-26T21:39:50.119Z,5.60
2018-03-26T21:42:18.403Z,6.67
2018-03-26T21:44:46.695Z,5.10
2018-03-26T21:47:14.968Z,5.73
2018-03-26T21:49:44.179Z,5.93
2018-03-26T21:52:12.983Z,6.23
2018-03-26T21:54:45.348Z,6.33
2018-03-26T21:57:13.636Z,6.83
2018-03-26T21:59:41.900Z,5.23
2018-03-26T22:02:10.167Z,5.50
2018-03-26T22:04:38.436Z,5.60
2018-03-26T22:07:06.696Z,4.97
2018-03-26T22:09:34.971Z,6.40
2018-03-26T22:12:03.247Z,6.83
2018-03-26T22:14:31.516Z,8.13
2018-03-26T22:16:59.790Z,5.90
2018-03-26T22:19:28.067Z,7.77
2018-03-26T22:21:56.340Z,5.70
2018-03-26T22:24:24.607Z,5.57
2018-03-26T22:26:52.897Z,5.27
2018-03-26T22:29:21.167Z,7.93
2018-03-26T22:31:49.443Z,6.73
2018-03-26T22:34:17.715Z,6.00
2018-03-26T22:36:45.987Z,5.97
2018-03-26T22:39:14.254Z,5.83
2018-03-26T22:41:42.549Z,6.40
2018-03-26T22:44:10.827Z,5.83
2018-03-26T22:46:39.100Z,6.20
2018-03-26T22:49:07.375Z,5.40
2018-03-26T22:51:35.640Z,5.97
2018-03-26T22:54:03.916Z,6.77
2018-03-26T22:56:32.192Z,6.43
2018-03-26T22:59:00.471Z,5.87
2018-03-26T23:01:28.739Z,6.23
2018-03-26T23:03:57.027Z,6.40
2018-03-26T23:06:25.293Z,6.93
2018-03-26T23:08:53.559Z,6.17
2018-03-26T23:11:21.836Z,5.43
2018-03-26T23:13:50.115Z,7.30
2018-03-26T23:16:18.402Z,5.60
2018-03-26T23:18:46.659Z,5.80
2018-03-26T23:21:14.935Z,8.30
2018-03-26T23:23:49.157Z,8.40
2018-03-26T23:26:17.438Z,8.00
2018-03-26T23:28:45.701Z,6.00
2018-03-26T23:31:14.012Z,7.60
2018-03-26T23:33:42.276Z,7.17
2018-03-26T23:36:10.562Z,7.73
2018-03-26T23:38:38.828Z,7.30
2018-03-26T23:41:07.095Z,7.37
2018-03-26T23:43:35.374Z,6.20
2018-03-26T23:46:03.648Z,6.50
2018-03-26T23:48:31.933Z,5.40
2018-03-26T23:51:00.200Z,7.67
2018-03-26T23:53:28.504Z,7.70
2018-03-26T23:55:56.772Z,7.33
2018-03-26T23:58:25.039Z,7.87
